Time;durP1;ratioP1;P1;durP2;ratioP2;P2;SDS_P1;SDS_P2;PMS_P1;PMS_P2;Temp;Humidity;BMP_temperature;BMP_pressure;BME280_temperature;BME280_humidity;BME280_pressure;Samples;Min_cycle;Max_cycle;Signal;HPM_P1;HPM_P2
2023/01/27 00:00:10;;;;;;;31.20;18.23;;;1.40;99.90;;;;;;4991019;28;20062;-47
2023/01/27 00:02:37;;;;;;;33.33;17.80;;;1.40;99.90;;;;;;4989902;28;20486;-44
2023/01/27 00:05:02;;;;;;;31.13;17.63;;;1.40;99.90;;;;;;4989888;28;20080;-42
2023/01/27 00:07:28;;;;;;;28.92;17.48;;;1.50;99.90;;;;;;4991003;28;20054;-43
2023/01/27 00:09:53;;;;;;;32.45;17.70;;;1.50;99.90;;;;;;4990501;28;20049;-43
2023/01/27 00:15:07;;;;;;;32.38;16.02;;;1.50;99.90;;;;;;4990618;28;20073;-41
2023/01/27 00:17:33;;;;;;;31.08;17.15;;;1.50;99.90;;;;;;4989851;28;20034;-39
2023/01/27 00:19:59;;;;;;;30.10;18.67;;;1.60;99.90;;;;;;4988664;28;20442;-41
2023/01/27 00:25:09;;;;;;;32.88;16.52;;;1.60;99.90;;;;;;4993718;28;20100;-39
2023/01/27 00:27:34;;;;;;;28.75;17.15;;;1.60;99.90;;;;;;4993249;28;20034;-39
2023/01/27 00:30:03;;;;;;;30.17;17.23;;;1.70;99.90;;;;;;4993860;28;20056;-39
2023/01/27 00:35:15;;;;;;;32.47;17.50;;;1.70;99.90;;;;;;4993352;28;20046;-40
2023/01/27 00:37:41;;;;;;;30.42;17.60;;;1.70;99.90;;;;;;4991853;28;20093;-39
2023/01/27 00:40:07;;;;;;;27.08;16.58;;;1.60;99.90;;;;;;4993658;28;20438;-41
2023/01/27 00:42:33;;;;;;;28.50;17.02;;;1.60;99.90;;;;;;4992672;28;20027;-43
2023/01/27 00:47:42;;;;;;;30.73;16.65;;;1.60;99.90;;;;;;4993791;28;20093;-39
2023/01/27 00:50:09;;;;;;;26.77;16.10;;;1.60;99.90;;;;;;4993272;28;20030;-38
2023/01/27 00:52:34;;;;;;;56.88;32.40;;;1.60;99.90;;;;;;4991151;28;20117;-39
2023/01/27 00:55:00;;;;;;;120.82;61.65;;;1.60;99.90;;;;;;4993010;28;20073;-40
2023/01/27 00:57:25;;;;;;;38.88;22.83;;;1.60;99.90;;;;;;4992983;28;20430;-39
2023/01/27 00:59:51;;;;;;;31.00;17.60;;;1.70;99.90;;;;;;4993275;28;20105;-40
2023/01/27 01:02:16;;;;;;;30.50;17.88;;;1.60;99.90;;;;;;4991171;28;20042;-39
2023/01/27 01:04:41;;;;;;;28.92;17.92;;;1.60;99.90;;;;;;4993035;28;20069;-39
2023/01/27 01:07:07;;;;;;;29.48;16.67;;;1.70;99.90;;;;;;4993104;28;20101;-40
2023/01/27 01:09:33;;;;;;;29.92;18.00;;;1.70;99.90;;;;;;4992801;28;20439;-41
2023/01/27 01:11:58;;;;;;;29.90;17.45;;;1.60;99.90;;;;;;4992787;28;20026;-42
2023/01/27 01:14:24;;;;;;;31.08;17.45;;;1.60;99.90;;;;;;4992894;28;20077;-38
2023/01/27 01:16:49;;;;;;;33.60;18.70;;;1.60;99.90;;;;;;4993455;28;20034;-40
2023/01/27 01:19:15;;;;;;;33.67;19.35;;;1.60;99.90;;;;;;4993501;28;20034;-46
2023/01/27 01:21:40;;;;;;;30.98;17.83;;;1.60;99.90;;;;;;4993078;28;20434;-41
2023/01/27 01:24:06;;;;;;;33.30;18.42;;;1.50;99.90;;;;;;4991873;28;20030;-39
2023/01/27 01:26:31;;;;;;;34.40;18.88;;;1.40;99.90;;;;;;4992810;28;20109;-45
2023/01/27 01:28:57;;;;;;;33.63;18.35;;;1.30;99.90;;;;;;4992999;28;20084;-41
2023/01/27 01:31:22;;;;;;;34.85;19.33;;;1.20;99.90;;;;;;4992556;28;20041;-39
2023/01/27 01:33:48;;;;;;;36.13;19.05;;;1.30;99.90;;;;;;4991981;28;20467;-40
2023/01/27 01:36:16;;;;;;;33.95;18.92;;;1.30;99.90;;;;;;4993463;28;20030;-39
2023/01/27 01:38:42;;;;;;;33.72;19.00;;;1.30;99.90;;;;;;4990881;28;20015;-40
2023/01/27 01:41:12;;;;;;;28.95;18.15;;;1.30;99.90;;;;;;4992889;28;20027;-39
2023/01/27 01:43:38;;;;;;;32.30;18.42;;;1.40;99.90;;;;;;4992224;28;20114;-39
2023/01/27 01:46:05;;;;;;;34.33;18.77;;;1.50;99.90;;;;;;4992423;28;20037;-41
2023/01/27 01:48:41;;;;;;;37.33;18.92;;;1.50;99.90;;;;;;4992220;28;20029;-38
2023/01/27 01:51:31;;;;;;;41.67;21.67;;;1.60;99.90;;;;;;4991041;28;20066;-40
2023/01/27 01:54:02;;;;;;;37.92;19.88;;;1.60;99.90;;;;;;4992528;28;20441;-43
2023/01/27 01:57:00;;;;;;;39.63;19.60;;;1.60;99.90;;;;;;4992468;28;20026;-40
2023/01/27 01:59:46;;;;;;;35.90;18.38;;;1.60;99.90;;;;;;4988433;28;20093;-40
2023/01/27 02:02:16;;;;;;;37.63;19.00;;;1.70;99.90;;;;;;4991833;28;20038;-41
2023/01/27 02:04:51;;;;;;;40.33;20.83;;;1.80;99.90;;;;;;5021528;23;20099;-55
2023/01/27 02:07:39;;;;;;;35.67;18.30;;;1.80;99.90;;;;;;5011598;28;20096;-50
2023/01/27 02:10:04;;;;;;;35.50;18.50;;;1.80;99.90;;;;;;5011448;28;20154;-53
2023/01/27 02:12:30;;;;;;;36.95;19.83;;;1.80;99.90;;;;;;5010778;28;20105;-51
2023/01/27 02:14:56;;;;;;;36.05;20.90;;;1.90;99.90;;;;;;5026753;28;20019;-53
2023/01/27 02:17:21;;;;;;;43.88;22.05;;;1.90;99.90;;;;;;5011496;28;20611;-52
2023/01/27 02:20:15;;;;;;;36.20;19.52;;;1.90;99.90;;;;;;5011468;28;20422;-51
2023/01/27 02:22:46;;;;;;;33.90;19.92;;;1.90;99.90;;;;;;5010644;28;20029;-51
2023/01/27 02:25:35;;;;;;;39.25;18.52;;;1.90;99.90;;;;;;5011466;28;20081;-53
2023/01/27 02:28:06;;;;;;;35.20;18.15;;;2.00;99.90;;;;;;5011647;28;20498;-48
2023/01/27 02:30:32;;;;;;;35.50;19.40;;;2.00;99.90;;;;;;5011232;28;20026;-48
2023/01/27 02:32:58;;;;;;;38.17;19.52;;;2.00;99.90;;;;;;5010491;28;20022;-50
2023/01/27 02:35:34;;;;;;;39.55;18.23;;;2.00;99.90;;;;;;5011090;28;20033;-48
2023/01/27 02:37:59;;;;;;;33.00;18.77;;;2.00;99.90;;;;;;5009762;28;20026;-52
2023/01/27 02:43:29;;;;;;;34.70;17.67;;;1.90;99.90;;;;;;5656352;22;20507;-50
2023/01/27 02:45:55;;;;;;;39.47;18.67;;;1.90;99.90;;;;;;5001626;28;20033;-51
2023/01/27 02:48:20;;;;;;;30.10;17.67;;;1.90;99.90;;;;;;5031024;28;20033;-53
2023/01/27 02:50:46;;;;;;;36.35;17.50;;;1.90;99.90;;;;;;5015226;28;20026;-49
2023/01/27 02:53:11;;;;;;;40.55;18.90;;;1.80;99.90;;;;;;5034231;28;20025;-50
2023/01/27 02:55:37;;;;;;;34.28;18.27;;;1.70;99.90;;;;;;5034507;28;20105;-49
2023/01/27 02:58:03;;;;;;;36.65;17.83;;;1.70;99.90;;;;;;5035027;28;20507;-55
2023/01/27 03:00:28;;;;;;;36.70;18.48;;;1.70;99.90;;;;;;5034351;28;20082;-49
2023/01/27 03:02:54;;;;;;;34.22;18.52;;;1.60;99.90;;;;;;5034373;28;20030;-50
2023/01/27 03:05:19;;;;;;;31.83;17.35;;;1.60;99.90;;;;;;5034337;28;20060;-53
2023/01/27 03:07:44;;;;;;;33.22;17.45;;;1.60;99.90;;;;;;5034300;28;20025;-48
2023/01/27 03:10:10;;;;;;;33.42;17.23;;;1.60;99.90;;;;;;5034522;28;20471;-48
2023/01/27 03:12:36;;;;;;;37.15;18.63;;;1.60;99.90;;;;;;5034116;28;20032;-49
2023/01/27 03:20:29;;;;;;;35.70;18.60;;;1.60;99.90;;;;;;5034404;28;20404;-52
2023/01/27 03:22:55;;;;;;;31.98;18.10;;;1.50;99.90;;;;;;5034128;28;20025;-49
2023/01/27 03:25:21;;;;;;;29.65;16.75;;;1.50;99.90;;;;;;5033876;28;20025;-53
2023/01/27 03:27:46;;;;;;;38.70;17.33;;;1.50;99.90;;;;;;5033858;28;20021;-48
2023/01/27 03:30:12;;;;;;;31.08;17.83;;;1.50;99.90;;;;;;5033805;28;20060;-51
2023/01/27 03:32:37;;;;;;;28.98;15.88;;;1.60;99.90;;;;;;5033473;28;20025;-48
2023/01/27 03:35:03;;;;;;;33.58;18.08;;;1.60;99.90;;;;;;5033787;28;20503;-49
2023/01/27 03:48:35;;;;;;;31.15;16.88;;;1.60;99.90;;;;;;5033518;28;20060;-49
2023/01/27 03:51:04;;;;;;;29.45;16.00;;;1.60;99.90;;;;;;5033434;28;20117;-49
2023/01/27 03:53:30;;;;;;;28.67;15.57;;;1.60;99.90;;;;;;5033069;28;20036;-51
2023/01/27 03:55:55;;;;;;;26.42;14.80;;;1.60;99.90;;;;;;5033257;28;20104;-48
2023/01/27 03:58:26;;;;;;;34.45;17.13;;;1.60;99.90;;;;;;5033334;28;20080;-56
2023/01/27 04:01:04;;;;;;;31.38;17.17;;;1.60;99.90;;;;;;5033272;28;20083;-48
2023/01/27 04:09:05;;;;;;;33.58;16.55;;;1.70;99.90;;;;;;5033200;28;20059;-51
2023/01/27 04:14:15;;;;;;;33.75;15.18;;;1.70;99.90;;;;;;5033266;28;20156;-49
2023/01/27 04:16:41;;;;;;;36.20;16.33;;;1.70;99.90;;;;;;5032878;28;20057;-49
2023/01/27 04:19:08;;;;;;;31.98;16.27;;;1.70;99.90;;;;;;5032920;28;20017;-50
2023/01/27 04:21:34;;;;;;;35.72;17.50;;;1.70;99.90;;;;;;5032613;28;20088;-52
2023/01/27 04:24:00;;;;;;;36.15;16.35;;;1.70;99.90;;;;;;5014892;28;20025;-52
2023/01/27 04:26:33;;;;;;;36.67;17.08;;;1.60;99.90;;;;;;5014981;28;20028;-53
2023/01/27 04:29:00;;;;;;;31.55;15.73;;;1.60;99.90;;;;;;5032848;28;20029;-48
2023/01/27 04:31:25;;;;;;;33.30;17.35;;;1.60;99.90;;;;;;5015059;28;20416;-53
2023/01/27 04:33:51;;;;;;;36.20;15.98;;;1.60;99.90;;;;;;5032321;28;20029;-49
2023/01/27 04:36:16;;;;;;;30.73;15.70;;;1.60;99.90;;;;;;5032732;28;20026;-51
2023/01/27 04:38:42;;;;;;;30.15;15.13;;;1.60;99.90;;;;;;5032341;28;20021;-54
2023/01/27 04:41:07;;;;;;;28.65;15.68;;;1.70;99.90;;;;;;5032482;28;20053;-50
2023/01/27 04:43:33;;;;;;;31.52;16.30;;;1.70;99.90;;;;;;5031874;28;20160;-48
2023/01/27 04:45:58;;;;;;;40.20;17.48;;;1.70;99.90;;;;;;5032416;28;20572;-53
2023/01/27 04:48:24;;;;;;;36.80;17.23;;;1.70;99.90;;;;;;5032592;28;20099;-52
2023/01/27 04:50:49;;;;;;;39.28;17.23;;;1.70;99.90;;;;;;5032095;28;20036;-54
2023/01/27 04:53:15;;;;;;;37.88;17.95;;;1.70;99.90;;;;;;5031842;28;20033;-49
2023/01/27 04:55:45;;;;;;;33.95;17.00;;;1.70;99.90;;;;;;5032255;28;20428;-49
2023/01/27 04:58:12;;;;;;;26.65;15.15;;;1.70;99.90;;;;;;5032388;28;20027;-47
2023/01/27 05:00:38;;;;;;;30.77;15.80;;;1.80;99.90;;;;;;5032166;28;20025;-48
2023/01/27 05:03:04;;;;;;;29.05;14.13;;;1.90;99.90;;;;;;5031991;28;20025;-49
2023/01/27 05:05:33;;;;;;;30.17;15.43;;;1.90;99.90;;;;;;5032134;28;20496;-48
2023/01/27 05:08:07;;;;;;;28.20;15.43;;;1.90;99.90;;;;;;5032271;28;20387;-48
2023/01/27 05:10:32;;;;;;;34.05;16.48;;;2.00;99.90;;;;;;5032171;28;20029;-48
2023/01/27 05:12:58;;;;;;;38.25;16.17;;;1.90;99.90;;;;;;5031449;28;20198;-49
2023/01/27 05:15:24;;;;;;;33.10;14.80;;;1.90;99.90;;;;;;5031406;28;20031;-55
2023/01/27 05:17:50;;;;;;;31.33;14.93;;;1.90;99.90;;;;;;5031834;28;20109;-55
2023/01/27 05:20:16;;;;;;;35.90;15.93;;;1.90;99.90;;;;;;5031746;28;20053;-53
2023/01/27 05:22:41;;;;;;;31.70;16.08;;;1.90;99.90;;;;;;5031277;28;20104;-52
2023/01/27 05:25:08;;;;;;;28.70;13.98;;;1.80;99.90;;;;;;5014059;28;20370;-52
2023/01/27 05:27:33;;;;;;;32.08;15.43;;;1.80;99.90;;;;;;5031706;28;20108;-54
2023/01/27 05:29:59;;;;;;;28.45;14.68;;;1.80;99.90;;;;;;5031573;28;20532;-49
2023/01/27 05:32:25;;;;;;;28.50;13.43;;;1.70;99.90;;;;;;5013647;28;20022;-50
2023/01/27 05:34:50;;;;;;;28.17;13.90;;;1.80;99.90;;;;;;5031732;28;20104;-49
2023/01/27 05:37:15;;;;;;;30.48;14.13;;;1.80;99.90;;;;;;5031806;28;20332;-50
2023/01/27 05:39:41;;;;;;;24.08;13.10;;;1.80;99.90;;;;;;5031669;28;20457;-53
2023/01/27 05:42:06;;;;;;;24.35;12.38;;;1.90;99.90;;;;;;5032127;28;20072;-54
2023/01/27 05:44:32;;;;;;;23.23;12.35;;;1.80;99.90;;;;;;5031453;28;20072;-51
2023/01/27 05:46:57;;;;;;;25.55;13.57;;;1.90;99.90;;;;;;5031619;28;20112;-51
2023/01/27 05:49:23;;;;;;;27.25;12.70;;;1.90;99.90;;;;;;5031622;28;20037;-53
2023/01/27 05:51:48;;;;;;;29.42;13.32;;;2.00;99.90;;;;;;5031308;28;20033;-53
2023/01/27 05:54:14;;;;;;;28.60;13.77;;;2.00;99.90;;;;;;5031381;28;20026;-51
2023/01/27 05:56:39;;;;;;;24.23;12.25;;;1.90;99.90;;;;;;5013962;28;20026;-48
2023/01/27 05:59:05;;;;;;;25.95;11.88;;;2.00;99.90;;;;;;5031711;28;20022;-50
2023/01/27 06:01:32;;;;;;;23.83;12.75;;;1.90;99.90;;;;;;5031431;28;20034;-56
2023/01/27 06:03:58;;;;;;;27.27;12.13;;;1.90;99.90;;;;;;5031143;28;20508;-49
2023/01/27 06:06:25;;;;;;;25.90;13.77;;;1.90;99.90;;;;;;5031523;28;20022;-49
2023/01/27 06:08:51;;;;;;;22.13;12.27;;;1.90;99.90;;;;;;5031064;28;20056;-46
2023/01/27 06:11:19;;;;;;;25.42;12.30;;;1.90;99.90;;;;;;5031280;28;20061;-47
2023/01/27 06:13:45;;;;;;;18.95;11.38;;;1.90;99.90;;;;;;5030996;28;20028;-47
2023/01/27 06:16:13;;;;;;;24.10;12.88;;;1.90;99.90;;;;;;5031701;28;20392;-53
2023/01/27 06:18:39;;;;;;;22.08;12.68;;;1.90;99.90;;;;;;5031503;28;20029;-52
2023/01/27 06:21:06;;;;;;;22.70;11.25;;;1.90;99.90;;;;;;5031247;28;20075;-49
2023/01/27 06:23:32;;;;;;;21.15;12.15;;;1.90;99.90;;;;;;5030892;28;20396;-47
2023/01/27 06:26:12;;;;;;;18.20;9.90;;;2.00;99.90;;;;;;5033391;28;20030;-52
2023/01/27 06:28:38;;;;;;;18.38;11.23;;;2.00;99.90;;;;;;5035477;28;20064;-48
2023/01/27 06:31:12;;;;;;;17.15;11.00;;;2.10;99.90;;;;;;5035249;28;20029;-51
2023/01/27 06:33:38;;;;;;;19.48;11.73;;;2.10;99.90;;;;;;5017065;28;20460;-47
2023/01/27 06:36:09;;;;;;;17.58;11.30;;;2.10;99.90;;;;;;5034927;28;20065;-48
2023/01/27 06:38:34;;;;;;;15.23;10.05;;;2.10;99.90;;;;;;5035258;28;20104;-48
2023/01/27 06:41:00;;;;;;;18.45;11.10;;;2.10;99.90;;;;;;5035166;28;20456;-51
2023/01/27 06:43:26;;;;;;;19.80;11.60;;;2.10;99.90;;;;;;5034533;28;20500;-55
2023/01/27 06:45:52;;;;;;;18.25;10.32;;;2.10;99.90;;;;;;5034663;28;20099;-53
2023/01/27 06:48:18;;;;;;;17.15;10.40;;;2.10;99.90;;;;;;5034646;28;20473;-52
2023/01/27 06:50:43;;;;;;;16.85;10.43;;;2.10;99.90;;;;;;5034897;28;20071;-50
2023/01/27 06:53:09;;;;;;;14.18;9.40;;;2.20;99.90;;;;;;5034307;28;20060;-52
2023/01/27 06:55:40;;;;;;;15.27;9.13;;;2.10;99.90;;;;;;5034762;28;20026;-51
2023/01/27 06:58:07;;;;;;;18.95;10.02;;;2.20;99.90;;;;;;5034234;28;20017;-53
2023/01/27 07:00:33;;;;;;;22.30;9.82;;;2.20;99.90;;;;;;5034586;28;20499;-50
2023/01/27 07:02:59;;;;;;;19.98;11.05;;;2.20;99.90;;;;;;5033992;28;20034;-49
2023/01/27 07:05:24;;;;;;;19.45;10.13;;;2.30;99.90;;;;;;5034505;28;20029;-51
2023/01/27 07:07:50;;;;;;;14.32;9.73;;;2.30;99.90;;;;;;5034370;28;20025;-53
2023/01/27 07:10:16;;;;;;;14.48;10.40;;;2.20;99.90;;;;;;5034271;28;20075;-51
2023/01/27 07:12:42;;;;;;;17.70;11.30;;;2.10;99.90;;;;;;5016124;28;20049;-48
2023/01/27 07:15:08;;;;;;;18.08;10.18;;;2.10;99.90;;;;;;5016714;28;20298;-50
2023/01/27 07:17:34;;;;;;;17.63;10.23;;;2.10;99.90;;;;;;5034308;28;20033;-50
2023/01/27 07:20:01;;;;;;;18.45;10.20;;;2.10;99.90;;;;;;5034354;28;20033;-49
2023/01/27 07:22:26;;;;;;;16.40;10.95;;;2.10;99.90;;;;;;5034531;28;20056;-53
2023/01/27 07:24:54;;;;;;;17.27;10.32;;;2.20;99.90;;;;;;5034321;28;20507;-47
2023/01/27 07:27:20;;;;;;;18.27;10.50;;;2.00;99.90;;;;;;5016599;28;20391;-48
2023/01/27 07:29:45;;;;;;;19.77;11.68;;;2.10;99.90;;;;;;5034177;28;20033;-49
2023/01/27 07:32:11;;;;;;;16.80;11.38;;;2.00;99.90;;;;;;5015730;28;20032;-49
2023/01/27 07:34:36;;;;;;;20.85;11.65;;;2.00;99.90;;;;;;5034269;28;20026;-49
2023/01/27 07:37:04;;;;;;;20.92;10.80;;;2.00;99.90;;;;;;5033328;28;20481;-48
2023/01/27 07:39:29;;;;;;;17.13;11.05;;;2.00;99.90;;;;;;5016156;28;20480;-50
2023/01/27 07:41:56;;;;;;;18.20;11.23;;;2.10;99.90;;;;;;5033718;28;20040;-53
2023/01/27 07:44:21;;;;;;;16.15;10.82;;;2.10;99.90;;;;;;5033472;28;20022;-50
2023/01/27 07:46:47;;;;;;;19.13;11.75;;;2.10;99.90;;;;;;5033524;28;20040;-48
2023/01/27 07:49:12;;;;;;;21.75;10.43;;;2.10;99.90;;;;;;5033675;28;20033;-49
2023/01/27 07:51:38;;;;;;;20.55;11.60;;;2.10;99.90;;;;;;5033714;28;20125;-55
2023/01/27 07:54:04;;;;;;;17.80;11.85;;;2.10;99.90;;;;;;5033440;28;20057;-52
2023/01/27 07:56:31;;;;;;;19.15;11.20;;;2.10;99.90;;;;;;5033440;28;20022;-52
2023/01/27 07:58:57;;;;;;;20.02;11.23;;;2.10;99.90;;;;;;5015612;28;20022;-48
2023/01/27 08:01:23;;;;;;;16.00;10.25;;;2.20;99.90;;;;;;5033079;28;20112;-46
2023/01/27 08:03:49;;;;;;;15.80;10.68;;;2.20;99.90;;;;;;5032947;28;20109;-49
2023/01/27 08:06:15;;;;;;;15.85;10.68;;;2.30;99.90;;;;;;5015442;28;20029;-49
2023/01/27 08:08:40;;;;;;;16.88;10.85;;;2.30;99.90;;;;;;5033353;28;20485;-51
2023/01/27 08:11:08;;;;;;;18.58;10.65;;;2.30;99.90;;;;;;5033132;28;20113;-48
2023/01/27 08:13:35;;;;;;;15.18;10.82;;;2.30;99.90;;;;;;5032730;28;20388;-48
2023/01/27 08:16:04;;;;;;;18.25;13.25;;;2.30;99.90;;;;;;5032884;28;20087;-53
2023/01/27 08:18:29;;;;;;;16.48;10.75;;;2.30;99.90;;;;;;5032996;28;20017;-48
2023/01/27 08:20:59;;;;;;;16.67;10.40;;;2.40;99.90;;;;;;5015244;28;20391;-48
2023/01/27 08:23:25;;;;;;;14.95;10.40;;;2.40;99.90;;;;;;5032653;28;20112;-49
2023/01/27 08:25:52;;;;;;;15.35;10.40;;;2.50;99.90;;;;;;5015222;28;20116;-46
2023/01/27 08:28:18;;;;;;;17.20;10.38;;;2.50;99.90;;;;;;5015021;28;20033;-50
2023/01/27 08:30:45;;;;;;;15.63;10.88;;;2.40;99.90;;;;;;5032853;28;20029;-48
2023/01/27 08:33:11;;;;;;;19.10;10.95;;;2.50;99.90;;;;;;5014808;28;20096;-49
2023/01/27 08:35:37;;;;;;;18.27;10.80;;;2.50;99.90;;;;;;5032833;28;20123;-49
2023/01/27 08:38:03;;;;;;;22.95;10.75;;;2.50;99.90;;;;;;5032685;28;20438;-53
2023/01/27 08:40:29;;;;;;;17.23;12.05;;;2.50;99.90;;;;;;5015191;28;20131;-50
2023/01/27 08:42:54;;;;;;;12.70;9.95;;;2.50;99.90;;;;;;5032465;28;20060;-52
2023/01/27 08:45:20;;;;;;;19.60;10.68;;;2.50;99.90;;;;;;5033173;28;20099;-50
2023/01/27 08:47:46;;;;;;;17.27;10.50;;;2.50;99.90;;;;;;5032875;28;20026;-50
2023/01/27 08:50:11;;;;;;;16.25;9.98;;;2.60;99.90;;;;;;5032782;28;20464;-49
2023/01/27 08:52:37;;;;;;;16.42;11.18;;;2.70;99.90;;;;;;5032773;28;20641;-50
2023/01/27 08:55:03;;;;;;;18.25;10.82;;;2.70;99.90;;;;;;5032767;28;20025;-51
2023/01/27 08:57:31;;;;;;;18.15;11.05;;;2.70;99.90;;;;;;5056751;23;20020;-48
2023/01/27 08:59:57;;;;;;;15.65;10.45;;;2.70;99.90;;;;;;5051793;28;20369;-45
2023/01/27 09:02:23;;;;;;;17.23;11.55;;;2.70;99.90;;;;;;5033764;28;20123;-51
2023/01/27 09:04:49;;;;;;;17.73;10.85;;;2.70;99.90;;;;;;5051993;28;20112;-53
2023/01/27 09:07:14;;;;;;;25.38;11.95;;;2.70;99.90;;;;;;5051503;28;20029;-51
2023/01/27 09:09:40;;;;;;;15.98;11.18;;;2.70;99.90;;;;;;5034074;28;20055;-49
2023/01/27 09:12:06;;;;;;;14.85;11.15;;;2.70;99.90;;;;;;5051639;28;20017;-49
2023/01/27 09:14:32;;;;;;;15.98;11.30;;;2.60;99.90;;;;;;5051913;28;20029;-48
2023/01/27 09:16:57;;;;;;;16.85;11.63;;;2.70;99.90;;;;;;5051834;28;20021;-50
2023/01/27 09:19:23;;;;;;;19.50;12.00;;;2.70;99.90;;;;;;5051577;28;20093;-46
2023/01/27 09:21:49;;;;;;;17.58;11.05;;;2.60;99.90;;;;;;5051669;28;20029;-49
2023/01/27 09:24:16;;;;;;;16.73;11.65;;;2.60;99.90;;;;;;5051744;28;20216;-53
2023/01/27 09:26:42;;;;;;;14.18;10.98;;;2.60;99.90;;;;;;5051629;28;20125;-52
2023/01/27 09:29:08;;;;;;;14.57;10.77;;;2.60;99.90;;;;;;5052245;28;20179;-47
2023/01/27 09:31:33;;;;;;;19.27;11.68;;;2.70;99.90;;;;;;5052227;28;20074;-48
2023/01/27 09:33:59;;;;;;;21.05;11.55;;;2.80;99.90;;;;;;5034760;28;20021;-47
2023/01/27 09:36:26;;;;;;;20.27;11.85;;;2.80;99.90;;;;;;5052499;28;20479;-48
2023/01/27 09:38:58;;;;;;;16.75;11.57;;;2.90;99.90;;;;;;5034399;28;20028;-47
2023/01/27 09:42:12;;;;;;;18.08;12.98;;;2.90;99.90;;;;;;5051734;28;20054;-48
2023/01/27 09:44:47;;;;;;;16.80;11.68;;;2.90;99.90;;;;;;5050842;28;20480;-48
2023/01/27 09:47:12;;;;;;;15.85;12.10;;;3.00;99.90;;;;;;5051753;28;20029;-49
2023/01/27 09:49:59;;;;;;;15.05;10.80;;;3.00;99.90;;;;;;5052101;28;20032;-49
2023/01/27 09:52:52;;;;;;;16.13;10.43;;;3.00;99.90;;;;;;5051441;28;20067;-46
2023/01/27 09:55:30;;;;;;;13.23;10.50;;;3.00;99.90;;;;;;5051616;28;20090;-49
2023/01/27 09:58:12;;;;;;;15.13;11.00;;;3.00;99.90;;;;;;5033665;28;20403;-52
2023/01/27 10:01:05;;;;;;;13.18;9.50;;;3.00;99.90;;;;;;5053511;28;20391;-49
2023/01/27 10:03:59;;;;;;;15.15;10.48;;;3.10;99.90;;;;;;5055320;28;20036;-50
2023/01/27 10:06:51;;;;;;;12.13;8.77;;;3.10;99.90;;;;;;5051291;28;20025;-46
2023/01/27 10:10:06;;;;;;;14.18;9.40;;;3.10;99.90;;;;;;5054945;28;20036;-45
2023/01/27 10:12:56;;;;;;;14.25;9.60;;;3.10;99.90;;;;;;4993677;28;20045;-47
2023/01/27 10:15:31;;;;;;;9.95;7.93;;;3.10;99.90;;;;;;5042457;28;20025;-46
2023/01/27 10:18:13;;;;;;;12.20;9.27;;;3.10;99.90;;;;;;5051282;28;20029;-50
2023/01/27 10:21:01;;;;;;;12.15;8.77;;;3.10;99.90;;;;;;5053330;28;20402;-48
2023/01/27 10:23:40;;;;;;;12.25;8.68;;;3.10;99.90;;;;;;5046032;28;20080;-49
2023/01/27 10:26:20;;;;;;;11.23;8.02;;;3.10;99.90;;;;;;5019915;28;20399;-53
2023/01/27 10:28:50;;;;;;;9.27;7.45;;;3.10;99.90;;;;;;5018254;28;20044;-49
2023/01/27 10:31:33;;;;;;;10.50;7.82;;;3.10;99.90;;;;;;5043004;28;20033;-51
2023/01/27 10:34:31;;;;;;;9.75;7.20;;;3.10;99.90;;;;;;5034976;28;20013;-50
2023/01/27 10:37:21;;;;;;;9.38;7.30;;;3.10;99.90;;;;;;5030115;28;20033;-50
2023/01/27 10:39:59;;;;;;;11.98;8.07;;;3.10;99.90;;;;;;5034957;28;20083;-50
2023/01/27 10:42:39;;;;;;;8.60;7.25;;;3.10;99.90;;;;;;5034953;28;20026;-51
2023/01/27 10:45:29;;;;;;;9.80;7.57;;;3.10;99.90;;;;;;5034969;28;20026;-49
2023/01/27 10:48:06;;;;;;;9.50;7.20;;;3.20;99.90;;;;;;5034488;28;20045;-51
2023/01/27 10:50:38;;;;;;;9.35;7.22;;;3.20;99.90;;;;;;5034698;28;20069;-52
2023/01/27 10:53:09;;;;;;;9.38;6.82;;;3.20;99.90;;;;;;5034613;28;20092;-50
2023/01/27 10:55:45;;;;;;;9.38;6.90;;;3.30;99.90;;;;;;5034962;28;20500;-48
2023/01/27 10:58:19;;;;;;;8.75;7.53;;;3.40;99.90;;;;;;5016817;28;20034;-49
2023/01/27 11:00:49;;;;;;;11.35;7.38;;;3.50;99.90;;;;;;5034610;28;20029;-49
2023/01/27 11:03:23;;;;;;;8.80;7.40;;;3.50;99.90;;;;;;5033710;28;20033;-50
2023/01/27 11:05:52;;;;;;;10.18;6.97;;;3.50;99.90;;;;;;5032387;28;20032;-51
2023/01/27 11:08:22;;;;;;;8.38;6.75;;;3.50;99.90;;;;;;5034464;28;20025;-53
2023/01/27 11:13:36;;;;;;;6.90;6.20;;;3.50;99.90;;;;;;5034414;28;20526;-49
2023/01/27 11:16:04;;;;;;;12.00;6.10;;;3.50;99.90;;;;;;5034816;28;20029;-51
2023/01/27 11:18:33;;;;;;;6.38;5.68;;;3.40;99.90;;;;;;5034546;28;20045;-55
2023/01/27 11:21:11;;;;;;;7.47;6.07;;;3.50;99.90;;;;;;5036701;28;20061;-52
2023/01/27 11:23:44;;;;;;;6.70;5.95;;;3.50;99.90;;;;;;5033477;28;20139;-52
2023/01/27 11:26:31;;;;;;;6.22;5.63;;;3.50;99.90;;;;;;5054210;28;20487;-55
2023/01/27 11:29:18;;;;;;;6.53;5.25;;;3.50;99.90;;;;;;5046222;28;20128;-51
2023/01/27 11:32:02;;;;;;;7.40;6.00;;;3.50;99.90;;;;;;5052677;28;20021;-49
2023/01/27 11:34:52;;;;;;;6.63;5.85;;;3.60;99.90;;;;;;5054338;28;20135;-53
2023/01/27 11:37:37;;;;;;;5.88;5.28;;;3.70;99.90;;;;;;5048241;28;20021;-50
2023/01/27 11:40:11;;;;;;;6.60;4.93;;;3.70;99.90;;;;;;5033913;28;20025;-49
2023/01/27 11:42:37;;;;;;;11.73;6.18;;;3.70;99.90;;;;;;5042306;28;20025;-54
2023/01/27 11:45:04;;;;;;;6.80;5.07;;;3.80;99.90;;;;;;5053434;28;20028;-51
2023/01/27 11:47:35;;;;;;;5.45;4.60;;;3.80;99.90;;;;;;5053709;28;20025;-53
2023/01/27 11:50:03;;;;;;;5.15;4.65;;;3.90;99.90;;;;;;5053737;28;20025;-49
2023/01/27 11:52:29;;;;;;;5.35;4.30;;;4.00;99.90;;;;;;5050255;28;20029;-52
2023/01/27 11:55:12;;;;;;;5.72;3.88;;;4.00;99.90;;;;;;5041036;28;20491;-56
2023/01/27 11:57:43;;;;;;;5.78;4.18;;;3.90;99.90;;;;;;5052986;28;20025;-50
2023/01/27 12:00:46;;;;;;;5.53;4.18;;;3.90;99.90;;;;;;5046716;28;20029;-52
2023/01/27 12:03:33;;;;;;;4.22;3.78;;;4.10;99.90;;;;;;4932716;29;20044;-52
2023/01/27 12:06:03;;;;;;;4.35;3.95;;;4.20;99.90;;;;;;5046630;28;20124;-54
2023/01/27 12:08:39;;;;;;;4.13;3.60;;;4.20;99.90;;;;;;5052838;28;20074;-53
2023/01/27 12:11:26;;;;;;;3.72;3.42;;;4.20;99.90;;;;;;5035089;28;20029;-50
2023/01/27 12:14:12;;;;;;;3.58;3.28;;;4.20;99.90;;;;;;5044506;28;20120;-51
2023/01/27 12:16:44;;;;;;;3.42;3.13;;;4.20;99.90;;;;;;5031090;28;20083;-51
2023/01/27 12:19:39;;;;;;;4.65;3.50;;;4.20;99.90;;;;;;5031445;28;20030;-54
2023/01/27 12:22:13;;;;;;;3.80;3.40;;;4.20;99.90;;;;;;5032362;28;20028;-53
2023/01/27 12:24:44;;;;;;;4.00;3.13;;;4.20;99.90;;;;;;5046078;28;20025;-51
2023/01/27 12:27:21;;;;;;;4.65;4.05;;;4.20;99.90;;;;;;5057659;28;20311;-48
2023/01/27 12:29:54;;;;;;;3.67;2.95;;;4.20;99.90;;;;;;5052256;28;20021;-52
2023/01/27 12:32:33;;;;;;;4.35;2.90;;;4.20;99.90;;;;;;5050326;28;20029;-52
2023/01/27 12:35:00;;;;;;;4.00;3.60;;;4.20;99.90;;;;;;5014996;28;20121;-51
2023/01/27 12:37:30;;;;;;;2.95;2.75;;;4.20;99.90;;;;;;5032472;28;20029;-50
2023/01/27 12:40:01;;;;;;;3.22;2.83;;;4.20;99.90;;;;;;5038356;28;20377;-51
2023/01/27 12:42:37;;;;;;;3.15;2.85;;;4.20;99.90;;;;;;5051756;28;20028;-48
2023/01/27 12:45:30;;;;;;;3.10;2.80;;;4.10;99.90;;;;;;5052269;28;20430;-54
2023/01/27 12:48:16;;;;;;;2.70;2.50;;;4.20;99.90;;;;;;5032418;28;20377;-50
2023/01/27 12:50:51;;;;;;;;;;;4.10;99.90;;;;;;5032570;28;20391;-49
2023/01/27 12:53:28;;;;;;;2.75;2.50;;;4.20;99.90;;;;;;5014473;28;20563;-49
2023/01/27 12:55:56;;;;;;;2.33;2.22;;;4.10;99.90;;;;;;5032609;28;20032;-50
2023/01/27 12:58:30;;;;;;;2.30;2.17;;;4.20;99.90;;;;;;5039281;28;20032;-51
2023/01/27 13:00:59;;;;;;;2.60;2.40;;;4.20;99.90;;;;;;5045239;28;20029;-48
2023/01/27 13:03:25;;;;;;;2.25;2.05;;;4.10;99.90;;;;;;5048180;28;20025;-49
2023/01/27 13:05:59;;;;;;;2.53;2.00;;;4.10;99.90;;;;;;5032311;28;20036;-47
2023/01/27 13:08:27;;;;;;;2.13;2.00;;;4.10;99.90;;;;;;5041843;28;20434;-48
2023/01/27 13:10:56;;;;;;;2.72;1.80;;;4.10;99.90;;;;;;5051759;28;20446;-52
2023/01/27 13:13:27;;;;;;;3.85;2.00;;;4.10;99.90;;;;;;5051701;28;20538;-53
2023/01/27 13:16:01;;;;;;;2.03;1.92;;;4.20;99.90;;;;;;5051744;28;20107;-52
2023/01/27 13:18:32;;;;;;;2.20;1.95;;;4.10;99.90;;;;;;5050395;28;20021;-49
2023/01/27 13:21:12;;;;;;;1.73;1.63;;;4.20;99.90;;;;;;5038823;28;20095;-50
2023/01/27 13:23:40;;;;;;;1.92;1.80;;;4.20;99.90;;;;;;5031443;28;20032;-52
2023/01/27 13:26:15;;;;;;;2.20;2.10;;;4.20;99.90;;;;;;5046559;28;20028;-54
2023/01/27 13:28:46;;;;;;;2.58;1.90;;;4.20;99.90;;;;;;5030392;28;20515;-52
2023/01/27 13:31:20;;;;;;;2.08;1.90;;;4.20;99.90;;;;;;5040853;28;20044;-49
2023/01/27 13:33:50;;;;;;;1.90;1.70;;;4.30;99.90;;;;;;5051371;28;20400;-51
2023/01/27 13:36:55;;;;;;;1.50;1.40;;;4.40;99.90;;;;;;5050919;28;20199;-50
2023/01/27 13:39:45;;;;;;;1.10;1.10;;;4.40;99.90;;;;;;5043727;28;20033;-51